aviador You're here:

KRIW Decoded Metar

RIVERTON in WY, USA
Report Time2017-03-23 23:53:00
UTC Time2017-03-24 00:08:51
Flight Rules vfr VFR
Wind360° at 11 kt
W.Decomp.*RWY 01: 10.3 kt HW 3.9 kt LCW
RWY 28: 3.9 kt HW 10.3 kt RCW
Visibility9999 m
Phenomena:Light Rain
Clouds:Broken 036 Hf
Overcast 045 Hf
Expected CloudBase > 400 ft AGL from Temp-Dew spread
Ceiling3,600 ft
Temp03°C (ISA -1)
Dew Point02°C (93% RH)
AAT-2.6°C
QNH1012 hPa
Density Alt5,600 ft
Elevation5,568 ft
Report Wrong Elevation
Raw Report
KRIW 232353Z AUTO 36011KT 10SM -RA BKN036 OVC045 03/02 A2989 RMK
AO2 SLP118 P0000 60017 T00330017 10044 20028 53018=

Extra information for KRIW:More info

Metar Taf Metar & Taf Last 4 Metars F.Rules Stats Wind Profile Meteogram Temp Stats Airport Information Weather charts Add Link Nearby VenuesMetar ALERT Operation Metar Decoded Social comments

AIRNAV info for KRIW